createdAt,value
2017-04-02T00:00:26.820Z,1008.08
2017-04-02T00:01:15.458Z,1008.09
2017-04-02T00:02:15.441Z,1008.07
2017-04-02T00:03:04.553Z,1008.08
2017-04-02T00:03:53.504Z,1008.05
2017-04-02T00:04:53.616Z,1008.06
2017-04-02T00:05:48.587Z,1008.05
2017-04-02T00:06:43.642Z,1008.04
2017-04-02T00:07:32.635Z,1008.04
2017-04-02T00:08:27.166Z,1008.07
2017-04-02T00:09:15.725Z,1008.05
2017-04-02T00:10:15.782Z,1008.08
2017-04-02T00:11:10.095Z,1008.09
2017-04-02T00:12:03.847Z,1008.08
2017-04-02T00:12:53.056Z,1008.10
2017-04-02T00:13:46.937Z,1008.10
2017-04-02T00:14:46.991Z,1008.10
2017-04-02T00:15:47.989Z,1008.10
2017-04-02T00:16:37.054Z,1008.12
2017-04-02T00:17:25.027Z,1008.10
2017-04-02T00:18:20.152Z,1008.09
2017-04-02T00:19:15.150Z,1008.09
2017-04-02T00:20:09.209Z,1008.12
2017-04-02T00:20:58.200Z,1008.07
2017-04-02T00:21:52.285Z,1008.09
2017-04-02T00:22:41.297Z,1008.12
2017-04-02T00:23:35.349Z,1008.09
2017-04-02T00:24:29.795Z,1008.08
2017-04-02T00:25:23.426Z,1008.13
2017-04-02T00:26:23.443Z,1008.12
2017-04-02T00:27:23.519Z,1008.12
2017-04-02T00:28:18.486Z,1008.14
2017-04-02T00:29:12.737Z,1008.16
2017-04-02T00:30:12.633Z,1008.16
2017-04-02T00:31:12.616Z,1008.16
2017-04-02T00:32:07.818Z,1008.20
2017-04-02T00:33:01.659Z,1008.21
2017-04-02T00:34:01.718Z,1008.23
2017-04-02T00:35:01.743Z,1008.23
2017-04-02T00:35:50.770Z,1008.20
2017-04-02T00:36:44.768Z,1008.22
2017-04-02T00:37:44.801Z,1008.22
2017-04-02T00:38:44.852Z,1008.20
2017-04-02T00:39:44.876Z,1008.22
2017-04-02T00:40:44.925Z,1008.20
2017-04-02T00:41:40.002Z,1008.23
2017-04-02T00:42:40.034Z,1008.27
2017-04-02T00:43:40.022Z,1008.28
2017-04-02T00:44:34.124Z,1008.25
2017-04-02T00:45:29.162Z,1008.30
2017-04-02T00:46:23.226Z,1008.28
2017-04-02T00:47:11.209Z,1008.28
2017-04-02T00:48:12.234Z,1008.30
2017-04-02T00:49:00.300Z,1008.29
2017-04-02T00:49:48.354Z,1008.32
2017-04-02T00:50:37.370Z,1008.30
2017-04-02T00:51:26.452Z,1008.36
2017-04-02T00:52:15.425Z,1008.37
2017-04-02T00:53:09.537Z,1008.37
2017-04-02T00:53:58.568Z,1008.42
2017-04-02T00:54:46.581Z,1008.42
2017-04-02T00:55:40.582Z,1008.47
2017-04-02T00:56:35.635Z,1008.49
2017-04-02T00:57:23.690Z,1008.44
2017-04-02T00:58:17.711Z,1008.48
2017-04-02T00:59:11.734Z,1008.48
2017-04-02T01:00:12.249Z,1008.52
2017-04-02T01:01:11.837Z,1008.54
2017-04-02T01:02:06.946Z,1008.50
2017-04-02T01:03:00.951Z,1008.49
2017-04-02T01:04:00.972Z,1008.49
2017-04-02T01:04:56.003Z,1008.46
2017-04-02T01:05:51.022Z,1008.44
2017-04-02T01:06:51.034Z,1008.45
2017-04-02T01:07:46.108Z,1008.44
2017-04-02T01:08:41.106Z,1008.44
2017-04-02T01:09:41.165Z,1008.42
2017-04-02T01:10:35.154Z,1008.44
2017-04-02T01:11:29.228Z,1008.45
2017-04-02T01:12:18.260Z,1008.47
2017-04-02T01:13:12.775Z,1008.48
2017-04-02T01:14:12.808Z,1008.49
2017-04-02T01:15:12.788Z,1008.47
2017-04-02T01:16:06.430Z,1008.51
2017-04-02T01:17:00.514Z,1008.54
2017-04-02T01:17:49.512Z,1008.56
2017-04-02T01:18:38.609Z,1008.52
2017-04-02T01:19:34.151Z,1008.54
2017-04-02T01:20:28.614Z,1008.53
2017-04-02T01:21:17.652Z,1008.52
2017-04-02T01:22:06.694Z,1008.55
2017-04-02T01:23:00.760Z,1008.52
2017-04-02T01:24:00.732Z,1008.55
2017-04-02T01:24:55.799Z,1008.52
2017-04-02T01:25:49.834Z,1008.52
2017-04-02T01:26:37.865Z,1008.50
2017-04-02T01:27:26.945Z,1008.51
2017-04-02T01:28:21.950Z,1008.54
2017-04-02T01:29:10.028Z,1008.51
2017-04-02T01:30:05.056Z,1008.50
2017-04-02T01:31:00.064Z,1008.51
2017-04-02T01:31:49.042Z,1008.55
2017-04-02T01:32:37.138Z,1008.54
2017-04-02T01:33:32.168Z,1008.54
2017-04-02T01:34:26.273Z,1008.61
2017-04-02T01:35:15.675Z,1008.57
2017-04-02T01:36:03.301Z,1008.60
2017-04-02T01:36:51.250Z,1008.61
2017-04-02T01:37:40.409Z,1008.61
2017-04-02T01:38:29.413Z,1008.63
2017-04-02T01:39:18.484Z,1008.63
2017-04-02T01:40:12.506Z,1008.65
2017-04-02T01:41:07.553Z,1008.64
2017-04-02T01:42:07.557Z,1008.68
2017-04-02T01:43:01.598Z,1008.66
2017-04-02T01:43:50.604Z,1008.66
2017-04-02T01:44:44.698Z,1008.66
2017-04-02T01:45:38.764Z,1008.66
2017-04-02T01:46:38.741Z,1008.63
2017-04-02T01:47:32.769Z,1008.68
2017-04-02T01:48:20.795Z,1008.66
2017-04-02T01:49:14.834Z,1008.63
2017-04-02T01:50:09.927Z,1008.63
2017-04-02T01:50:59.013Z,1008.67
2017-04-02T01:51:48.014Z,1008.68
2017-04-02T01:52:48.003Z,1008.70
2017-04-02T01:53:37.542Z,1008.72
2017-04-02T01:54:31.081Z,1008.72
2017-04-02T01:55:20.113Z,1008.70
2017-04-02T01:56:09.193Z,1008.76
2017-04-02T01:57:04.245Z,1008.79
2017-04-02T01:58:04.249Z,1008.78
2017-04-02T01:58:53.257Z,1008.81
2017-04-02T01:59:41.297Z,1008.80
2017-04-02T02:00:29.416Z,1008.80
2017-04-02T02:01:17.398Z,1008.83
2017-04-02T02:02:17.439Z,1008.82
2017-04-02T02:03:12.444Z,1008.80
2017-04-02T02:04:06.533Z,1008.82
2017-04-02T02:05:06.558Z,1008.80
2017-04-02T02:06:06.640Z,1008.83
2017-04-02T02:07:01.712Z,1008.81
2017-04-02T02:07:56.645Z,1008.79
2017-04-02T02:08:44.645Z,1008.81
2017-04-02T02:09:32.734Z,1008.81
2017-04-02T02:10:21.770Z,1008.81
2017-04-02T02:11:16.838Z,1008.77
2017-04-02T02:12:05.821Z,1008.82
2017-04-02T02:12:59.854Z,1008.81
2017-04-02T02:13:53.921Z,1008.80
2017-04-02T02:14:53.956Z,1008.80
2017-04-02T02:15:54.012Z,1008.84
2017-04-02T02:16:41.984Z,1008.86
2017-04-02T02:17:30.169Z,1008.87
2017-04-02T02:18:19.071Z,1008.88
2017-04-02T02:19:14.163Z,1008.87
2017-04-02T02:20:08.155Z,1008.87
2017-04-02T02:21:08.213Z,1008.89
2017-04-02T02:22:03.246Z,1008.88
2017-04-02T02:22:58.336Z,1008.86
2017-04-02T02:23:52.306Z,1008.89
2017-04-02T02:24:46.365Z,1008.87
2017-04-02T02:25:46.383Z,1008.89
2017-04-02T02:26:40.874Z,1008.88
2017-04-02T02:27:40.877Z,1008.88
2017-04-02T02:28:29.528Z,1008.88
2017-04-02T02:29:18.627Z,1008.85
2017-04-02T02:30:18.681Z,1008.91
2017-04-02T02:31:12.624Z,1008.91
2017-04-02T02:32:00.655Z,1008.92
2017-04-02T02:32:49.693Z,1008.96
2017-04-02T02:33:37.757Z,1009.00
2017-04-02T02:34:26.800Z,1009.00
2017-04-02T02:35:21.829Z,1008.99
2017-04-02T02:36:22.829Z,1008.99
2017-04-02T02:37:10.934Z,1009.01
2017-04-02T02:37:59.950Z,1009.02
2017-04-02T02:38:54.019Z,1009.04
2017-04-02T02:39:43.045Z,1009.07
2017-04-02T02:40:32.044Z,1009.07
2017-04-02T02:41:21.107Z,1009.06
2017-04-02T02:42:16.126Z,1009.10
2017-04-02T02:43:10.121Z,1009.11
2017-04-02T02:44:11.246Z,1009.11
2017-04-02T02:45:12.300Z,1009.12
2017-04-02T02:46:12.310Z,1009.08
2017-04-02T02:47:18.307Z,1009.16
2017-04-02T02:48:06.339Z,1009.15
2017-04-02T02:48:55.316Z,1009.17
2017-04-02T02:49:50.422Z,1009.15
2017-04-02T02:50:39.428Z,1009.15
2017-04-02T02:51:34.501Z,1009.16
2017-04-02T02:52:34.591Z,1009.19
2017-04-02T02:53:28.521Z,1009.17
2017-04-02T02:54:28.541Z,1009.20
2017-04-02T02:55:23.637Z,1009.19
2017-04-02T02:56:23.636Z,1009.20
2017-04-02T02:57:17.707Z,1009.20
2017-04-02T02:58:17.734Z,1009.21
2017-04-02T02:59:12.760Z,1009.18
2017-04-02T03:00:07.800Z,1009.17
2017-04-02T03:01:07.861Z,1009.22
2017-04-02T03:02:02.848Z,1009.20
2017-04-02T03:02:57.924Z,1009.23
2017-04-02T03:03:57.911Z,1009.20
2017-04-02T03:04:52.906Z,1009.24
2017-04-02T03:05:48.002Z,1009.25
2017-04-02T03:06:49.032Z,1009.25
2017-04-02T03:07:49.064Z,1009.32
2017-04-02T03:08:49.084Z,1009.31
2017-04-02T03:09:44.593Z,1009.31
2017-04-02T03:10:38.135Z,1009.29
2017-04-02T03:11:38.184Z,1009.31
2017-04-02T03:12:33.364Z,1009.28
2017-04-02T03:13:33.298Z,1009.34
2017-04-02T03:14:27.603Z,1009.31
2017-04-02T03:15:27.639Z,1009.33
2017-04-02T03:16:22.385Z,1009.32
2017-04-02T03:17:17.399Z,1009.35
2017-04-02T03:18:17.454Z,1009.36
2017-04-02T03:19:12.447Z,1009.37
2017-04-02T03:20:07.572Z,1009.41
2017-04-02T03:21:08.566Z,1009.39
2017-04-02T03:22:08.552Z,1009.43
2017-04-02T03:23:08.598Z,1009.45
2017-04-02T03:24:03.634Z,1009.45
2017-04-02T03:24:57.664Z,1009.44
2017-04-02T03:25:57.708Z,1009.45
2017-04-02T03:26:52.704Z,1009.43
2017-04-02T03:27:52.769Z,1009.44
2017-04-02T03:28:52.823Z,1009.40
2017-04-02T03:29:52.878Z,1009.45
2017-04-02T03:30:47.274Z,1009.43
2017-04-02T03:31:46.924Z,1009.42
2017-04-02T03:32:41.919Z,1009.43
2017-04-02T03:33:41.947Z,1009.45
2017-04-02T03:34:41.926Z,1009.40
2017-04-02T03:35:42.019Z,1009.40
2017-04-02T03:36:36.072Z,1009.42
2017-04-02T03:37:36.079Z,1009.42
2017-04-02T03:38:31.064Z,1009.43
2017-04-02T03:39:31.096Z,1009.42
2017-04-02T03:40:25.190Z,1009.42
2017-04-02T03:41:25.241Z,1009.44
2017-04-02T03:42:20.245Z,1009.45
2017-04-02T03:43:20.295Z,1009.44
2017-04-02T03:44:20.308Z,1009.48
2017-04-02T03:45:20.308Z,1009.48
2017-04-02T03:46:14.402Z,1009.46
2017-04-02T03:47:14.459Z,1009.49
2017-04-02T03:48:09.465Z,1009.48
2017-04-02T03:49:04.498Z,1009.49
2017-04-02T03:50:05.491Z,1009.48
2017-04-02T03:51:05.536Z,1009.48
2017-04-02T03:52:00.628Z,1009.49
2017-04-02T03:53:06.622Z,1009.55
2017-04-02T03:54:01.613Z,1009.52
2017-04-02T03:55:01.735Z,1009.56
2017-04-02T03:56:02.052Z,1009.52
2017-04-02T03:57:02.709Z,1009.54
2017-04-02T03:58:03.768Z,1009.53
2017-04-02T03:59:03.793Z,1009.55
2017-04-02T04:00:03.807Z,1009.52
2017-04-02T04:00:58.853Z,1009.53
2017-04-02T04:01:52.913Z,1009.56
2017-04-02T04:02:53.012Z,1009.55
2017-04-02T04:03:48.245Z,1009.53
2017-04-02T04:04:48.026Z,1009.53
2017-04-02T04:05:42.033Z,1009.60
2017-04-02T04:06:42.032Z,1009.54
2017-04-02T04:07:37.125Z,1009.55
2017-04-02T04:08:32.222Z,1009.58
2017-04-02T04:09:32.210Z,1009.58
2017-04-02T04:10:27.301Z,1009.58
2017-04-02T04:11:27.263Z,1009.58
2017-04-02T04:12:27.259Z,1009.58
2017-04-02T04:13:27.311Z,1009.59
2017-04-02T04:14:21.339Z,1009.62
2017-04-02T04:15:21.335Z,1009.61
2017-04-02T04:16:16.349Z,1009.60
2017-04-02T04:17:11.414Z,1009.65
2017-04-02T04:18:12.441Z,1009.68
2017-04-02T04:19:12.496Z,1009.67
2017-04-02T04:20:12.542Z,1009.70
2017-04-02T04:21:07.578Z,1009.70
2017-04-02T04:22:08.998Z,1009.72
2017-04-02T04:23:07.605Z,1009.72
2017-04-02T04:24:01.627Z,1009.74
2017-04-02T04:25:01.731Z,1009.72
2017-04-02T04:25:51.005Z,1009.75
2017-04-02T04:26:38.766Z,1009.75
2017-04-02T04:27:38.837Z,1009.81
2017-04-02T04:28:33.845Z,1009.83
2017-04-02T04:29:39.889Z,1009.81
2017-04-02T04:30:34.137Z,1009.84
2017-04-02T04:31:33.978Z,1009.89
2017-04-02T04:32:28.987Z,1009.87
2017-04-02T04:33:29.053Z,1009.90
2017-04-02T04:34:29.018Z,1009.92
2017-04-02T04:35:35.167Z,1009.92
2017-04-02T04:36:30.115Z,1009.95
2017-04-02T04:37:30.116Z,1009.96
2017-04-02T04:38:25.157Z,1009.98
2017-04-02T04:39:20.341Z,1009.97
2017-04-02T04:40:21.214Z,1010.00
2017-04-02T04:41:16.256Z,1009.98
2017-04-02T04:42:05.327Z,1009.98
2017-04-02T04:42:54.337Z,1009.99
2017-04-02T04:43:43.414Z,1010.01
2017-04-02T04:44:32.456Z,1009.97
2017-04-02T04:45:20.542Z,1010.00
2017-04-02T04:46:14.551Z,1009.99
2017-04-02T04:47:14.541Z,1010.00
2017-04-02T04:48:08.558Z,1010.02
2017-04-02T04:49:08.686Z,1010.04
2017-04-02T04:50:03.670Z,1010.03
2017-04-02T04:51:03.694Z,1010.06
2017-04-02T04:52:03.726Z,1010.06
2017-04-02T04:53:03.751Z,1010.02
2017-04-02T04:53:57.821Z,1010.08
2017-04-02T04:54:57.847Z,1010.07
2017-04-02T04:55:52.898Z,1010.08
2017-04-02T04:56:47.890Z,1010.10
2017-04-02T04:57:47.933Z,1010.11
2017-04-02T04:58:42.912Z,1010.20
2017-04-02T04:59:38.041Z,1010.19
2017-04-02T05:00:32.039Z,1010.22
2017-04-02T05:01:33.091Z,1010.27
2017-04-02T05:02:28.121Z,1010.26
2017-04-02T05:03:28.166Z,1010.34
2017-04-02T05:04:28.135Z,1010.34
2017-04-02T05:05:28.142Z,1010.35
2017-04-02T05:06:28.267Z,1010.34
2017-04-02T05:07:28.273Z,1010.36
2017-04-02T05:08:28.285Z,1010.36
2017-04-02T05:09:23.306Z,1010.39
2017-04-02T05:10:17.338Z,1010.39
2017-04-02T05:11:18.413Z,1010.42
2017-04-02T05:12:19.428Z,1010.41
2017-04-02T05:13:19.653Z,1010.41
2017-04-02T05:14:19.489Z,1010.43
2017-04-02T05:15:19.470Z,1010.46
2017-04-02T05:16:19.543Z,1010.45
2017-04-02T05:17:14.765Z,1010.45
2017-04-02T05:18:08.626Z,1010.50
2017-04-02T05:19:02.688Z,1010.50
2017-04-02T05:19:56.681Z,1010.58
2017-04-02T05:20:56.822Z,1010.58
2017-04-02T05:21:51.761Z,1010.56
2017-04-02T05:22:46.832Z,1010.58
2017-04-02T05:23:40.817Z,1010.63
2017-04-02T05:24:40.840Z,1010.66
2017-04-02T05:25:35.898Z,1010.62
2017-04-02T05:26:41.954Z,1010.71
2017-04-02T05:27:35.964Z,1010.71
2017-04-02T05:28:24.037Z,1010.74
2017-04-02T05:29:12.022Z,1010.70
2017-04-02T05:30:01.298Z,1010.71
2017-04-02T05:30:49.090Z,1010.71
2017-04-02T05:31:49.179Z,1010.69
2017-04-02T05:32:44.127Z,1010.70
2017-04-02T05:33:39.239Z,1010.72
2017-04-02T05:34:39.245Z,1010.70
2017-04-02T05:35:34.346Z,1010.71
2017-04-02T05:36:29.302Z,1010.72
2017-04-02T05:37:23.407Z,1010.75
2017-04-02T05:38:23.512Z,1010.75
2017-04-02T05:39:18.907Z,1010.75
2017-04-02T05:40:18.920Z,1010.78
2017-04-02T05:41:13.572Z,1010.76
2017-04-02T05:42:02.544Z,1010.75
2017-04-02T05:42:51.578Z,1010.76
2017-04-02T05:43:39.624Z,1010.76
2017-04-02T05:44:27.676Z,1010.78
2017-04-02T05:45:15.732Z,1010.82
2017-04-02T05:46:03.798Z,1010.82
2017-04-02T05:46:57.922Z,1010.80
2017-04-02T05:47:46.867Z,1010.83
2017-04-02T05:48:46.912Z,1010.88
2017-04-02T05:49:35.936Z,1010.88
2017-04-02T05:50:23.952Z,1010.93
2017-04-02T05:51:13.053Z,1010.93
2017-04-02T05:52:01.023Z,1010.89
2017-04-02T05:52:50.537Z,1010.94
2017-04-02T05:53:38.178Z,1010.98
2017-04-02T05:54:26.222Z,1011.01
2017-04-02T05:55:15.220Z,1011.02
2017-04-02T05:56:09.235Z,1011.01
2017-04-02T05:57:04.333Z,1010.99
2017-04-02T05:58:04.302Z,1011.06
2017-04-02T05:58:59.345Z,1011.03
2017-04-02T05:59:54.394Z,1011.04
2017-04-02T06:00:48.437Z,1011.05
2017-04-02T06:01:43.468Z,1011.03
2017-04-02T06:02:44.596Z,1011.05
2017-04-02T06:03:44.551Z,1011.06
2017-04-02T06:04:44.528Z,1011.08
2017-04-02T06:05:33.592Z,1011.11
2017-04-02T06:06:23.154Z,1011.10
2017-04-02T06:07:16.809Z,1011.11
2017-04-02T06:08:10.757Z,1011.11
2017-04-02T06:08:59.021Z,1011.12
2017-04-02T06:09:53.242Z,1011.15
2017-04-02T06:10:52.982Z,1011.17
2017-04-02T06:11:41.880Z,1011.13
2017-04-02T06:12:35.912Z,1011.18
2017-04-02T06:13:25.014Z,1011.18
2017-04-02T06:14:14.055Z,1011.18
2017-04-02T06:15:09.056Z,1011.17
2017-04-02T06:15:57.109Z,1011.20
2017-04-02T06:16:51.600Z,1011.24
2017-04-02T06:17:46.222Z,1011.26
2017-04-02T06:18:46.328Z,1011.30
2017-04-02T06:19:46.250Z,1011.32
2017-04-02T06:20:46.268Z,1011.36
2017-04-02T06:21:46.337Z,1011.39
2017-04-02T06:22:46.320Z,1011.42
2017-04-02T06:23:46.415Z,1011.39
2017-04-02T06:24:46.453Z,1011.41
2017-04-02T06:25:46.454Z,1011.42
2017-04-02T06:26:46.459Z,1011.42
2017-04-02T06:27:46.501Z,1011.43
2017-04-02T06:28:46.542Z,1011.45
2017-04-02T06:29:46.588Z,1011.49
2017-04-02T06:30:46.611Z,1011.49
2017-04-02T06:31:52.648Z,1011.47
2017-04-02T06:32:47.684Z,1011.49
2017-04-02T06:33:41.722Z,1011.53
2017-04-02T06:34:41.727Z,1011.53
2017-04-02T06:35:36.892Z,1011.57
2017-04-02T06:36:30.785Z,1011.57
2017-04-02T06:37:30.819Z,1011.61
2017-04-02T06:38:24.924Z,1011.57
2017-04-02T06:39:19.970Z,1011.60
2017-04-02T06:40:20.992Z,1011.64
2017-04-02T06:41:21.034Z,1011.61
2017-04-02T06:42:21.044Z,1011.66
2017-04-02T06:43:15.038Z,1011.69
2017-04-02T06:44:15.117Z,1011.67
2017-04-02T06:45:10.161Z,1011.68
2017-04-02T06:45:59.677Z,1011.70
2017-04-02T06:46:47.231Z,1011.70
2017-04-02T06:47:36.234Z,1011.73
2017-04-02T06:48:25.402Z,1011.74
2017-04-02T06:49:26.325Z,1011.75
2017-04-02T06:50:14.363Z,1011.77
2017-04-02T06:51:08.415Z,1011.81
2017-04-02T06:52:09.504Z,1011.80
2017-04-02T06:53:10.526Z,1011.81
2017-04-02T06:54:05.509Z,1011.79
2017-04-02T06:55:05.541Z,1011.81
2017-04-02T06:56:05.567Z,1011.84
2017-04-02T06:57:05.583Z,1011.80
2017-04-02T06:58:11.660Z,1011.81
2017-04-02T06:59:06.766Z,1011.81
2017-04-02T07:00:00.775Z,1011.81
2017-04-02T07:00:54.777Z,1011.84
2017-04-02T07:01:54.816Z,1011.79
2017-04-02T07:02:55.877Z,1011.84
2017-04-02T07:03:55.891Z,1011.85
2017-04-02T07:04:44.934Z,1011.82
2017-04-02T07:05:34.461Z,1011.86
2017-04-02T07:06:33.996Z,1011.85
2017-04-02T07:07:29.036Z,1011.90
2017-04-02T07:08:24.152Z,1011.88
2017-04-02T07:09:18.536Z,1011.82
2017-04-02T07:10:18.182Z,1011.89
2017-04-02T07:11:13.249Z,1011.90
2017-04-02T07:12:08.295Z,1011.91
2017-04-02T07:13:03.435Z,1011.93
2017-04-02T07:13:52.336Z,1011.94
2017-04-02T07:14:52.427Z,1011.92
2017-04-02T07:15:47.435Z,1011.92
2017-04-02T07:16:41.423Z,1011.96
2017-04-02T07:17:41.467Z,1011.98
2017-04-02T07:18:29.544Z,1011.98
2017-04-02T07:19:29.622Z,1011.97
2017-04-02T07:20:24.677Z,1011.92
2017-04-02T07:21:13.644Z,1011.91
2017-04-02T07:22:09.038Z,1011.97
2017-04-02T07:23:09.761Z,1011.97
2017-04-02T07:24:10.755Z,1011.98
2017-04-02T07:25:10.818Z,1011.96
2017-04-02T07:26:10.896Z,1011.94
2017-04-02T07:27:04.953Z,1011.90
2017-04-02T07:27:53.012Z,1012.01
2017-04-02T07:28:40.979Z,1011.96
2017-04-02T07:29:30.112Z,1012.00
2017-04-02T07:30:24.162Z,1012.02
2017-04-02T07:31:18.202Z,1012.02
2017-04-02T07:32:07.728Z,1012.01
2017-04-02T07:33:01.250Z,1012.05
2017-04-02T07:33:56.335Z,1012.05
2017-04-02T07:34:50.328Z,1012.07
2017-04-02T07:35:39.898Z,1012.07
2017-04-02T07:36:34.494Z,1012.09
2017-04-02T07:37:28.514Z,1012.12
2017-04-02T07:38:23.554Z,1012.13
2017-04-02T07:39:11.579Z,1012.15
2017-04-02T07:40:12.709Z,1012.12
2017-04-02T07:41:12.624Z,1012.15
2017-04-02T07:42:07.738Z,1012.15
2017-04-02T07:43:07.752Z,1012.13
2017-04-02T07:44:01.854Z,1012.12
2017-04-02T07:44:56.855Z,1012.12
2017-04-02T07:45:56.871Z,1012.16
2017-04-02T07:46:56.926Z,1012.18
2017-04-02T07:47:51.993Z,1012.20
2017-04-02T07:48:47.402Z,1012.26
2017-04-02T07:49:47.472Z,1012.26
2017-04-02T07:50:41.530Z,1012.25
2017-04-02T07:51:35.146Z,1012.24
2017-04-02T07:52:24.144Z,1012.23
2017-04-02T07:53:13.707Z,1012.31
2017-04-02T07:54:13.750Z,1012.30
2017-04-02T07:55:02.330Z,1012.29
2017-04-02T07:55:56.401Z,1012.30
2017-04-02T07:56:51.370Z,1012.32
2017-04-02T07:57:51.506Z,1012.30
2017-04-02T07:58:46.556Z,1012.29
2017-04-02T07:59:41.539Z,1012.32
2017-04-02T08:00:35.625Z,1012.35
2017-04-02T08:01:23.678Z,1012.34
2017-04-02T08:02:11.725Z,1012.42
2017-04-02T08:03:05.743Z,1012.40
2017-04-02T08:03:54.815Z,1012.44
2017-04-02T08:04:48.836Z,1012.45
2017-04-02T08:05:54.911Z,1012.48
2017-04-02T08:06:49.903Z,1012.46
2017-04-02T08:07:49.993Z,1012.47
2017-04-02T08:08:44.221Z,1012.44
2017-04-02T08:09:38.152Z,1012.47
2017-04-02T08:10:33.147Z,1012.47
2017-04-02T08:11:22.231Z,1012.45
2017-04-02T08:12:11.258Z,1012.49
2017-04-02T08:13:05.305Z,1012.53
2017-04-02T08:14:05.352Z,1012.54
2017-04-02T08:14:59.467Z,1012.57
2017-04-02T08:15:53.461Z,1012.59
2017-04-02T08:16:48.062Z,1012.54
2017-04-02T08:17:42.574Z,1012.57
2017-04-02T08:18:36.653Z,1012.58
2017-04-02T08:19:31.671Z,1012.63
2017-04-02T08:20:25.645Z,1012.63
2017-04-02T08:21:20.746Z,1012.66
2017-04-02T08:22:08.849Z,1012.70
2017-04-02T08:23:02.826Z,1012.72
2017-04-02T08:23:56.929Z,1012.77
2017-04-02T08:24:44.920Z,1012.86
2017-04-02T08:25:40.038Z,1012.76
2017-04-02T08:26:29.072Z,1012.77
2017-04-02T08:27:24.146Z,1012.65
2017-04-02T08:28:13.194Z,1012.74
2017-04-02T08:29:07.298Z,1012.76
2017-04-02T08:30:07.288Z,1012.86
2017-04-02T08:30:56.362Z,1012.76
2017-04-02T08:31:50.872Z,1012.77
2017-04-02T08:32:44.445Z,1012.85
2017-04-02T08:33:38.494Z,1012.85
2017-04-02T08:34:27.568Z,1012.92
2017-04-02T08:35:22.213Z,1013.06
2017-04-02T08:36:15.646Z,1013.12
2017-04-02T08:37:15.684Z,1013.17
2017-04-02T08:38:09.733Z,1013.16
2017-04-02T08:39:09.768Z,1013.06
2017-04-02T08:40:04.859Z,1013.12
2017-04-02T08:40:58.917Z,1013.05
2017-04-02T08:41:58.927Z,1012.93
2017-04-02T08:42:53.437Z,1012.94
2017-04-02T08:43:53.537Z,1013.11
2017-04-02T08:44:47.053Z,1013.04
2017-04-02T08:45:47.139Z,1012.97
2017-04-02T08:46:41.175Z,1013.02
2017-04-02T08:47:42.328Z,1013.11
2017-04-02T08:48:36.268Z,1013.05
2017-04-02T08:49:25.730Z,1013.13
2017-04-02T08:50:25.801Z,1013.34
2017-04-02T08:51:14.434Z,1013.40
2017-04-02T08:52:09.503Z,1013.35
2017-04-02T08:53:09.574Z,1013.34
2017-04-02T08:53:57.566Z,1013.41
2017-04-02T08:54:52.761Z,1013.35
2017-04-02T08:55:41.671Z,1013.31
2017-04-02T08:56:36.745Z,1013.20
2017-04-02T08:57:25.302Z,1013.25
2017-04-02T08:58:18.905Z,1013.33
2017-04-02T08:59:12.919Z,1013.50
2017-04-02T09:00:07.961Z,1013.67
2017-04-02T09:01:02.698Z,1013.70
2017-04-02T09:01:50.050Z,1013.66
2017-04-02T09:02:45.135Z,1013.67
2017-04-02T09:03:45.223Z,1013.64
2017-04-02T09:04:34.682Z,1013.54
2017-04-02T09:05:23.283Z,1013.37
2017-04-02T09:06:23.386Z,1013.37
2017-04-02T09:07:12.466Z,1013.31
2017-04-02T09:08:01.948Z,1013.20
2017-04-02T09:08:49.843Z,1013.26
2017-04-02T09:09:38.527Z,1013.15
2017-04-02T09:10:28.140Z,1013.13
2017-04-02T09:11:16.704Z,1013.22
2017-04-02T09:12:11.742Z,1013.30
2017-04-02T09:13:11.832Z,1013.16
2017-04-02T09:14:00.630Z,1013.26
2017-04-02T09:15:00.505Z,1013.21
2017-04-02T09:15:54.956Z,1013.19
2017-04-02T09:16:49.032Z,1013.23
2017-04-02T09:17:43.061Z,1013.24
2017-04-02T09:18:32.694Z,1013.22
2017-04-02T09:19:26.850Z,1013.27
2017-04-02T09:20:26.259Z,1013.22
2017-04-02T09:21:21.307Z,1013.27
2017-04-02T09:22:10.360Z,1013.32
2017-04-02T09:23:05.416Z,1013.27
2017-04-02T09:23:59.943Z,1013.31
2017-04-02T09:24:54.807Z,1013.29
2017-04-02T09:25:42.520Z,1013.32
2017-04-02T09:26:42.627Z,1013.44
2017-04-02T09:27:32.103Z,1013.42
2017-04-02T09:28:19.679Z,1013.44
2017-04-02T09:29:07.743Z,1013.48
2017-04-02T09:30:02.663Z,1013.47
2017-04-02T09:31:03.520Z,1013.53
2017-04-02T09:32:04.498Z,1013.62
2017-04-02T09:32:52.946Z,1013.50
2017-04-02T09:33:48.034Z,1013.65
2017-04-02T09:34:42.037Z,1013.68
2017-04-02T09:35:30.183Z,1013.62
2017-04-02T09:36:24.135Z,1013.60
2017-04-02T09:37:13.189Z,1013.63
2017-04-02T09:38:13.235Z,1013.63
2017-04-02T09:39:02.678Z,1013.64
2017-04-02T09:39:57.320Z,1013.61
2017-04-02T09:40:51.420Z,1013.60
2017-04-02T09:41:40.429Z,1013.61
2017-04-02T09:42:40.505Z,1013.60
2017-04-02T09:43:35.023Z,1013.60
2017-04-02T09:44:23.577Z,1013.61
2017-04-02T09:45:12.669Z,1013.60
2017-04-02T09:46:07.305Z,1013.70
2017-04-02T09:47:00.736Z,1013.56
2017-04-02T09:47:48.794Z,1013.50
2017-04-02T09:48:48.815Z,1013.70
2017-04-02T09:49:37.885Z,1013.67
2017-04-02T09:50:32.960Z,1013.71
2017-04-02T09:51:27.130Z,1013.76
2017-04-02T09:52:15.042Z,1013.63
2017-04-02T09:53:16.108Z,1013.65
2017-04-02T09:54:16.169Z,1013.82
2017-04-02T09:55:10.631Z,1013.81
2017-04-02T09:56:10.191Z,1013.85
2017-04-02T09:56:59.341Z,1013.85
2017-04-02T09:57:53.337Z,1013.99
2017-04-02T09:58:47.443Z,1013.86
2017-04-02T09:59:41.437Z,1013.80
2017-04-02T10:00:37.026Z,1013.87
2017-04-02T10:01:24.565Z,1013.93
2017-04-02T10:02:18.648Z,1013.90
2017-04-02T10:03:07.201Z,1014.03
2017-04-02T10:04:08.241Z,1014.04
2017-04-02T10:05:01.821Z,1013.84
2017-04-02T10:05:50.822Z,1013.81
2017-04-02T10:06:45.899Z,1013.90
2017-04-02T10:07:40.636Z,1013.92
2017-04-02T10:08:34.018Z,1014.04
2017-04-02T10:09:23.061Z,1013.94
2017-04-02T10:10:17.124Z,1013.95
2017-04-02T10:11:11.676Z,1013.89
2017-04-02T10:12:11.732Z,1013.95
2017-04-02T10:13:06.697Z,1013.96
2017-04-02T10:14:00.311Z,1013.97
2017-04-02T10:14:54.381Z,1013.82
2017-04-02T10:15:48.426Z,1013.77
2017-04-02T10:16:42.990Z,1013.87
2017-04-02T10:17:37.546Z,1014.00
2017-04-02T10:18:26.697Z,1013.91
2017-04-02T10:19:15.115Z,1013.91
2017-04-02T10:20:09.706Z,1014.01
2017-04-02T10:21:09.802Z,1014.04
2017-04-02T10:21:59.089Z,1014.05
2017-04-02T10:22:58.906Z,1014.04
2017-04-02T10:23:53.060Z,1014.05
2017-04-02T10:24:42.018Z,1014.06
2017-04-02T10:25:36.048Z,1014.01
2017-04-02T10:26:25.092Z,1014.08
2017-04-02T10:27:13.273Z,1013.82
2017-04-02T10:28:02.305Z,1013.85
2017-04-02T10:29:02.389Z,1013.93
2017-04-02T10:29:56.368Z,1014.01
2017-04-02T10:30:50.315Z,1013.83
2017-04-02T10:31:44.797Z,1014.05
2017-04-02T10:32:38.497Z,1013.73
2017-04-02T10:33:32.548Z,1013.78
2017-04-02T10:34:27.609Z,1013.70
2017-04-02T10:35:21.689Z,1013.69
2017-04-02T10:36:16.185Z,1013.77
2017-04-02T10:37:10.773Z,1013.83
2017-04-02T10:38:04.815Z,1013.87
2017-04-02T10:39:04.901Z,1013.88
2017-04-02T10:40:00.090Z,1013.89
2017-04-02T10:40:53.927Z,1013.93
2017-04-02T10:41:48.488Z,1013.94
2017-04-02T10:42:37.164Z,1013.89
2017-04-02T10:43:37.142Z,1014.02
2017-04-02T10:44:26.214Z,1013.95
2017-04-02T10:45:20.855Z,1014.17
2017-04-02T10:46:20.769Z,1014.16
2017-04-02T10:47:09.331Z,1013.89
2017-04-02T10:47:58.409Z,1013.95
2017-04-02T10:48:46.430Z,1013.92
2017-04-02T10:49:40.567Z,1013.96
2017-04-02T10:50:34.603Z,1014.16
2017-04-02T10:51:29.628Z,1014.10
2017-04-02T10:52:24.630Z,1014.10
2017-04-02T10:53:24.685Z,1013.92
2017-04-02T10:54:18.947Z,1013.94
2017-04-02T10:55:13.800Z,1014.01
2017-04-02T10:56:08.016Z,1014.02
2017-04-02T10:57:01.890Z,1014.30
2017-04-02T10:57:56.981Z,1014.35
2017-04-02T10:58:51.454Z,1014.08
2017-04-02T10:59:46.036Z,1014.28
2017-04-02T11:00:41.124Z,1014.08
2017-04-02T11:01:41.171Z,1013.98
2017-04-02T11:02:35.221Z,1014.07
2017-04-02T11:03:24.469Z,1014.13